Portada
METAR-TAF:

METAR-TAF

Aeropuertos :

Baréin, Bahréin

Aeropuerto Internacional de Baréin

latitud: 26-16N, longitud: 050-39E, altitud: 2 m

Observación

El informe se hizo hace 30 minutos, a las 19:00 UTC
Viento 7 kt del este
Temperatura 35°C
Humedad 67%
Presión 1001 hPa
Visibilidad: 7000 m
Cielo despejado

METAR: OBBI 171900Z 09007KT 7000 SKC 35/28 Q1001 NOSIG

Hora: 22:30 (19:30 UTC)

Pronóstico

El informe se hizo hace 2 horas y 30 minutos, a las 17:00 UTC
Pronóstico válido del 17 a las 18 UTC al 19 a las 00 UTC
Viento 5 kt con dirección variable
Visibilidad: 7000 m
Temporalmente
del 18 a las 01 UTC al 18 a las 07 UTC
Visibilidad: 4000 m
calima
Evolucionando progresivamente
del 18 a las 08 UTC al 18 a las 10 UTC
Viento 10 kt del noreste
Evolucionando progresivamente
del 18 a las 18 UTC al 18 a las 20 UTC
Viento 5 kt con dirección variable

TAF: OBBI 171700Z 1718/1900 VRB05KT 7000 NSC TEMPO 1801/1807 4000 HZ BECMG 1808/1810 05010KT BECMG 1818/1820 VRB05KT

Observaciones y pronósticos meteorológicos de más de 4000 aeropuertos (mensajes METAR y TAF).

Los puntos amarillos y rojos representan las estaciones disponibles.

Ponga el ratón en el punto deseado para ver el nombre de la estación.

Haga clic para ver las observaciones y los pronósticos meteorológicos.

Para cambiar el mapa : haga clic en los botones verdes con una cruz de color negro para hacer un zoom, en el botón verde con un guión para alejar o en las flechas verdes para mapas adyacentes.


METAR-TAF: